Sugar Land, TX (77498)

4:13 PM CST on December 08, 2016 (GMT -0600)
Sugar Mill | | Change Station
Active Advisory: Wind Advisory

Elev 108 ft 29.63 °N, 95.63 °W | Updated 49 seconds ago

Mostly Cloudy
Mostly Cloudy
46.8 °F
Feels Like 47 °F
N
2.9
Wind Variable Wind from NNW
Gusts 10.0 mph

Today
High -- | Low -- °F
--% Chance of Precip.
Yesterday
High -- | Low -- °F
Precip. -- in
Pressure 30.41 in
Visibility 10.0 miles
Clouds Mostly Cloudy 9500 ft
Windchill 47 °F
Dew Point 38 °F
Humidity 71%
Rainfall 0.04 in
Snow Depth Not available.
7:05 AM 5:23 PM
Waxing Gibbous, 67% visible
METAR KSGR 082153Z 01016G22KT 10SM BKN095 08/01 A3041 RMK AO2 PK WND 02026/2119 SLP298 T00830011
Pressure 30.41 in
Visibility 10.0 miles
Clouds Mostly Cloudy 9500 ft
Windchill 47 °F
Dew Point 38 °F
Humidity 71%
Rainfall 0.04 in
Snow Depth Not available.
7:05 AM 5:23 PM
Waxing Gibbous, 67% visible
METAR KSGR 082153Z 01016G22KT 10SM BKN095 08/01 A3041 RMK AO2 PK WND 02026/2119 SLP298 T00830011

10-Day Weather Forecast

Almanac

Astronomy

Dec. 08, 2016 Rise Set
Actual Time
Civil Twilight
Nautical Twilight
Astronomical Twilight
Moon
Length of Visible Light
Length of Day
Tomorrow will be .
, % of the Moon is Illuminated

Today's Extremes

State Highs State Lows

Community

WunderPhotos

Upload Photos

1,956,277 photos uploaded!

WunderBlog® & News

Nearby

Air Quality

  Air Quality AQ Index Pollutant
Not available.

Snow Depth

Station Depth Elevation

Earthquake Activity

City Distance Mag. Time & Date
Minimum magnitude displayed is 2.5.

Coastal Water Temperatures

Place Temperature

Stations

Nearby Weather Stations

Station Location Temp. Windchill Dew Point Humidity Wind Precip. Elev Updated Type
                   

Watches & Warnings

Wind Advisory
Issued: 2:51 PM CST Dec. 8, 2016 – National Weather Service

... Wind Advisory remains in effect until 6 PM CST this evening...

* event... north winds 20 to 30 mph with gusts of 35 mph

* timing... until 6 PM CST today

* impact... windy conditions could impact travel on area highways
for high profile vehicles. Any outdoor tents... canopies or
bounce houses will need to be secured.

Precautionary/preparedness actions...

Drivers of vans... campers... trailers... and other high-profile
vehicles should be alert to the danger of these winds...
especially when driving along east to west oriented roads.